createdAt,value
2018-07-12T00:01:02.701Z,0
2018-07-12T00:02:11.341Z,0
2018-07-12T00:03:19.989Z,0
2018-07-12T00:04:28.631Z,0
2018-07-12T00:05:37.284Z,0
2018-07-12T00:06:45.930Z,0
2018-07-12T00:07:54.834Z,0
2018-07-12T00:09:03.477Z,0
2018-07-12T00:10:12.119Z,0
2018-07-12T00:11:20.772Z,0
2018-07-12T00:12:29.411Z,0
2018-07-12T00:13:38.059Z,0
2018-07-12T00:14:46.701Z,0
2018-07-12T00:15:55.350Z,0
2018-07-12T00:17:03.991Z,0
2018-07-12T00:18:12.643Z,0
2018-07-12T00:19:21.283Z,0
2018-07-12T00:20:29.934Z,0
2018-07-12T00:21:38.576Z,0
2018-07-12T00:22:47.503Z,0
2018-07-12T00:23:56.668Z,0
2018-07-12T00:25:05.314Z,0
2018-07-12T00:26:13.961Z,0
2018-07-12T00:27:22.608Z,0
2018-07-12T00:28:31.255Z,0
2018-07-12T00:29:39.896Z,0
2018-07-12T00:30:48.543Z,0
2018-07-12T00:31:57.190Z,0
2018-07-12T00:33:05.840Z,0
2018-07-12T00:34:14.481Z,0
2018-07-12T00:35:23.125Z,0
2018-07-12T00:36:31.772Z,0
2018-07-12T00:37:40.416Z,0
2018-07-12T00:38:49.059Z,0
2018-07-12T00:39:57.705Z,0
2018-07-12T00:41:06.348Z,0
2018-07-12T00:42:14.998Z,0
2018-07-12T00:43:23.643Z,0
2018-07-12T00:44:32.814Z,0
2018-07-12T00:45:41.719Z,0
2018-07-12T00:46:50.631Z,0
2018-07-12T00:47:59.282Z,0
2018-07-12T00:49:07.927Z,0
2018-07-12T00:50:16.574Z,0
2018-07-12T00:51:25.212Z,0
2018-07-12T00:52:33.864Z,0
2018-07-12T00:53:42.767Z,0
2018-07-12T00:54:51.412Z,0
2018-07-12T00:56:00.054Z,0
2018-07-12T00:57:08.977Z,0
2018-07-12T00:58:17.617Z,0
2018-07-12T00:59:26.268Z,0
2018-07-12T01:00:34.907Z,0
2018-07-12T01:01:43.815Z,0
2018-07-12T01:02:52.461Z,0
2018-07-12T01:04:01.109Z,0
2018-07-12T01:05:09.760Z,0
2018-07-12T01:06:18.398Z,0
2018-07-12T01:07:27.046Z,0
2018-07-12T01:08:35.686Z,0
2018-07-12T01:09:44.336Z,0
2018-07-12T01:10:52.979Z,0
2018-07-12T01:12:01.630Z,0
2018-07-12T01:13:10.271Z,0
2018-07-12T01:14:19.182Z,0
2018-07-12T01:15:28.081Z,0
2018-07-12T01:16:36.729Z,0
2018-07-12T01:17:45.370Z,0
2018-07-12T01:18:54.022Z,0
2018-07-12T01:20:02.672Z,0
2018-07-12T01:21:11.574Z,0
2018-07-12T01:22:20.230Z,0
2018-07-12T01:23:28.858Z,0
2018-07-12T01:24:37.512Z,0
2018-07-12T01:25:46.150Z,0
2018-07-12T01:26:54.800Z,0
2018-07-12T01:28:03.956Z,0
2018-07-12T01:29:12.877Z,0
2018-07-12T01:30:21.528Z,0
2018-07-12T01:31:30.445Z,0
2018-07-12T01:32:39.084Z,0
2018-07-12T01:33:47.737Z,0
2018-07-12T01:34:56.380Z,0
2018-07-12T01:36:05.088Z,0
2018-07-12T01:37:13.666Z,0
2018-07-12T01:38:22.313Z,0
2018-07-12T01:39:30.963Z,0
2018-07-12T01:40:39.611Z,0
2018-07-12T01:41:48.259Z,0
2018-07-12T01:42:56.894Z,0
2018-07-12T01:44:05.542Z,0
2018-07-12T01:45:14.184Z,0
2018-07-12T01:46:22.836Z,0
2018-07-12T01:47:31.473Z,0
2018-07-12T01:48:40.391Z,0
2018-07-12T01:49:49.031Z,0
2018-07-12T01:50:57.685Z,0
2018-07-12T01:52:06.592Z,0
2018-07-12T01:53:15.235Z,0
2018-07-12T01:54:23.877Z,0
2018-07-12T01:55:32.531Z,0
2018-07-12T01:56:41.174Z,0
2018-07-12T01:57:49.814Z,0
2018-07-12T01:58:58.457Z,0
2018-07-12T02:00:07.102Z,0
2018-07-12T02:01:15.754Z,0
2018-07-12T02:02:24.394Z,0
2018-07-12T02:03:33.044Z,0
2018-07-12T02:04:41.949Z,0
2018-07-12T02:05:50.870Z,0
2018-07-12T02:06:59.509Z,0
2018-07-12T02:08:08.164Z,0
2018-07-12T02:09:16.801Z,0
2018-07-12T02:10:25.452Z,0
2018-07-12T02:11:34.095Z,0
2018-07-12T02:12:42.743Z,0
2018-07-12T02:13:51.378Z,0
2018-07-12T02:15:00.054Z,0
2018-07-12T02:16:08.978Z,0
2018-07-12T02:17:17.621Z,0
2018-07-12T02:18:26.261Z,0
2018-07-12T02:19:34.915Z,0
2018-07-12T02:20:43.555Z,0
2018-07-12T02:21:52.202Z,0
2018-07-12T02:23:00.840Z,0
2018-07-12T02:24:09.495Z,0
2018-07-12T02:25:18.142Z,0
2018-07-12T02:26:27.057Z,0
2018-07-12T02:27:35.714Z,0
2018-07-12T02:28:44.348Z,0
2018-07-12T02:29:52.989Z,0
2018-07-12T02:31:01.641Z,0
2018-07-12T02:32:10.277Z,0
2018-07-12T02:33:19.459Z,0
2018-07-12T02:34:28.376Z,0
2018-07-12T02:35:37.286Z,0
2018-07-12T02:36:45.936Z,0
2018-07-12T02:37:54.573Z,0
2018-07-12T02:39:03.499Z,0
2018-07-12T02:40:12.148Z,0
2018-07-12T02:41:20.803Z,0
2018-07-12T02:42:29.444Z,0
2018-07-12T02:43:38.098Z,4
2018-07-12T02:44:47.004Z,4
2018-07-12T02:45:55.658Z,0
2018-07-12T02:47:04.297Z,4
2018-07-12T02:48:12.945Z,4
2018-07-12T02:49:21.596Z,4
2018-07-12T02:50:30.250Z,0
2018-07-12T02:51:39.174Z,4
2018-07-12T02:52:47.815Z,4
2018-07-12T02:53:56.730Z,4
2018-07-12T02:55:05.373Z,8
2018-07-12T02:56:14.031Z,8
2018-07-12T02:57:22.671Z,8
2018-07-12T02:58:31.324Z,12
2018-07-12T02:59:39.960Z,12
2018-07-12T03:00:48.619Z,12
2018-07-12T03:01:57.260Z,16
2018-07-12T03:03:05.913Z,16
2018-07-12T03:04:14.550Z,20
2018-07-12T03:05:23.205Z,20
2018-07-12T03:06:31.858Z,24
2018-07-12T03:07:40.764Z,28
2018-07-12T03:08:49.936Z,32
2018-07-12T03:09:58.852Z,32
2018-07-12T03:11:07.785Z,40
2018-07-12T03:12:16.708Z,44
2018-07-12T03:13:25.355Z,48
2018-07-12T03:14:34.266Z,48
2018-07-12T03:15:43.252Z,56
2018-07-12T03:16:52.377Z,60
2018-07-12T03:18:01.293Z,68
2018-07-12T03:19:09.942Z,76
2018-07-12T03:20:18.590Z,84
2018-07-12T03:21:27.499Z,88
2018-07-12T03:22:36.410Z,96
2018-07-12T03:23:45.059Z,104
2018-07-12T03:24:53.967Z,112
2018-07-12T03:26:02.873Z,124
2018-07-12T03:27:11.521Z,132
2018-07-12T03:28:20.164Z,140
2018-07-12T03:29:28.807Z,148
2018-07-12T03:30:37.454Z,164
2018-07-12T03:31:46.101Z,172
2018-07-12T03:32:55.018Z,188
2018-07-12T03:34:03.662Z,200
2018-07-12T03:35:12.307Z,208
2018-07-12T03:36:21.206Z,228
2018-07-12T03:37:29.855Z,244
2018-07-12T03:38:38.500Z,264
2018-07-12T03:39:47.145Z,280
2018-07-12T03:40:55.784Z,300
2018-07-12T03:42:04.700Z,316
2018-07-12T03:43:13.341Z,340
2018-07-12T03:44:21.989Z,364
2018-07-12T03:45:30.628Z,388
2018-07-12T03:46:39.276Z,408
2018-07-12T03:47:47.923Z,428
2018-07-12T03:48:56.569Z,456
2018-07-12T03:50:05.217Z,476
2018-07-12T03:51:13.857Z,504
2018-07-12T03:52:22.505Z,528
2018-07-12T03:53:31.151Z,560
2018-07-12T03:54:39.805Z,588
2018-07-12T03:55:48.710Z,616
2018-07-12T03:56:57.347Z,644
2018-07-12T03:58:06.401Z,668
2018-07-12T03:59:14.928Z,692
2018-07-12T04:00:23.573Z,716
2018-07-12T04:01:32.219Z,744
2018-07-12T04:02:40.859Z,772
2018-07-12T04:03:49.773Z,796
2018-07-12T04:04:58.416Z,828
2018-07-12T04:06:07.063Z,860
2018-07-12T04:07:15.707Z,892
2018-07-12T04:08:24.609Z,936
2018-07-12T04:09:33.524Z,996
2018-07-12T04:10:42.169Z,1068
2018-07-12T04:11:50.816Z,1140
2018-07-12T04:12:59.458Z,1204
2018-07-12T04:14:08.108Z,1252
2018-07-12T04:15:16.748Z,1296
2018-07-12T04:16:25.398Z,1336
2018-07-12T04:17:34.031Z,1376
2018-07-12T04:18:42.684Z,1412
2018-07-12T04:19:51.585Z,1412
2018-07-12T04:21:00.234Z,1400
2018-07-12T04:22:08.871Z,1388
2018-07-12T04:23:17.517Z,1360
2018-07-12T04:24:26.165Z,1344
2018-07-12T04:25:34.812Z,1340
2018-07-12T04:26:43.459Z,1332
2018-07-12T04:27:52.094Z,1312
2018-07-12T04:29:00.742Z,1292
2018-07-12T04:30:09.387Z,1324
2018-07-12T04:31:18.037Z,1388
2018-07-12T04:32:26.670Z,1472
2018-07-12T04:33:35.328Z,1592
2018-07-12T04:34:44.305Z,1652
2018-07-12T04:35:52.888Z,1696
2018-07-12T04:37:01.791Z,1736
2018-07-12T04:38:10.438Z,1764
2018-07-12T04:39:19.081Z,1788
2018-07-12T04:40:27.737Z,1808
2018-07-12T04:41:36.378Z,1820
2018-07-12T04:42:45.284Z,1840
2018-07-12T04:43:53.927Z,1868
2018-07-12T04:45:02.828Z,1876
2018-07-12T04:46:11.479Z,1900
2018-07-12T04:47:20.120Z,1912
2018-07-12T04:48:28.766Z,1944
2018-07-12T04:49:37.402Z,2000
2018-07-12T04:50:46.062Z,2004
2018-07-12T04:51:54.703Z,2040
2018-07-12T04:53:03.619Z,2096
2018-07-12T04:54:12.264Z,2120
2018-07-12T04:55:21.185Z,2116
2018-07-12T04:56:29.825Z,2124
2018-07-12T04:57:38.472Z,2116
2018-07-12T04:58:47.109Z,2108
2018-07-12T04:59:55.757Z,2112
2018-07-12T05:01:04.679Z,2116
2018-07-12T05:02:13.328Z,2180
2018-07-12T05:03:21.979Z,2188
2018-07-12T05:04:30.613Z,2212
2018-07-12T05:05:39.530Z,2240
2018-07-12T05:06:48.171Z,2256
2018-07-12T05:07:56.826Z,2232
2018-07-12T05:09:05.462Z,2352
2018-07-12T05:10:14.109Z,2312
2018-07-12T05:11:22.749Z,2332
2018-07-12T05:12:31.399Z,2384
2018-07-12T05:13:40.040Z,2420
2018-07-12T05:14:48.686Z,2436
2018-07-12T05:15:57.331Z,2444
2018-07-12T05:17:06.244Z,2464
2018-07-12T05:18:14.885Z,2496
2018-07-12T05:19:23.533Z,2524
2018-07-12T05:20:32.177Z,2528
2018-07-12T05:21:40.817Z,2512
2018-07-12T05:22:49.728Z,2540
2018-07-12T05:23:58.373Z,2556
2018-07-12T05:25:07.020Z,2588
2018-07-12T05:26:15.926Z,2640
2018-07-12T05:27:24.577Z,2588
2018-07-12T05:28:33.227Z,2640
2018-07-12T05:29:41.872Z,2644
2018-07-12T05:30:50.908Z,2680
2018-07-12T05:31:59.779Z,2656
2018-07-12T05:33:08.428Z,2640
2018-07-12T05:34:17.345Z,2684
2018-07-12T05:35:25.987Z,2700
2018-07-12T05:36:34.638Z,2728
2018-07-12T05:37:43.281Z,2780
2018-07-12T05:38:51.976Z,2804
2018-07-12T05:40:00.577Z,2860
2018-07-12T05:41:09.220Z,2880
2018-07-12T05:42:17.869Z,2892
2018-07-12T05:43:26.514Z,2940
2018-07-12T05:44:35.429Z,2972
2018-07-12T05:45:44.070Z,2944
2018-07-12T05:46:52.719Z,2900
2018-07-12T05:48:01.632Z,2940
2018-07-12T05:49:10.283Z,2928
2018-07-12T05:50:18.923Z,2928
2018-07-12T05:51:27.570Z,2940
2018-07-12T05:52:36.219Z,2924
2018-07-12T05:53:45.130Z,2996
2018-07-12T05:54:53.774Z,3096
2018-07-12T05:56:02.421Z,3136
2018-07-12T05:57:11.062Z,3236
2018-07-12T05:58:19.967Z,3356
2018-07-12T05:59:28.617Z,3488
2018-07-12T06:00:37.264Z,3668
2018-07-12T06:01:45.908Z,3768
2018-07-12T06:02:54.631Z,3984
2018-07-12T06:04:03.200Z,4008
2018-07-12T06:05:11.846Z,4368
2018-07-12T06:06:20.492Z,4232
2018-07-12T06:07:29.137Z,3960
2018-07-12T06:08:37.789Z,3248
2018-07-12T06:09:46.434Z,3468
2018-07-12T06:10:55.085Z,3432
2018-07-12T06:12:03.732Z,3376
2018-07-12T06:13:12.763Z,3416
2018-07-12T06:14:21.342Z,3444
2018-07-12T06:15:29.988Z,3444
2018-07-12T06:16:38.637Z,3456
2018-07-12T06:17:47.288Z,3376
2018-07-12T06:18:56.016Z,3428
2018-07-12T06:20:05.247Z,3464
2018-07-12T06:21:13.887Z,3384
2018-07-12T06:22:22.539Z,3456
2018-07-12T06:23:31.186Z,3448
2018-07-12T06:24:40.543Z,3528
2018-07-12T06:25:49.222Z,3468
2018-07-12T06:26:57.934Z,3560
2018-07-12T06:28:06.578Z,3436
2018-07-12T06:29:16.441Z,3548
2018-07-12T06:30:25.115Z,3732
2018-07-12T06:31:33.764Z,3640
2018-07-12T06:32:42.414Z,4048
2018-07-12T06:33:51.060Z,4136
2018-07-12T06:34:59.716Z,3988
2018-07-12T06:36:08.362Z,3676
2018-07-12T06:37:17.090Z,3400
2018-07-12T06:38:25.656Z,3392
2018-07-12T06:39:34.309Z,3860
2018-07-12T06:40:42.956Z,3428
2018-07-12T06:41:51.840Z,3648
2018-07-12T06:43:00.761Z,3840
2018-07-12T06:44:09.679Z,3824
2018-07-12T06:45:18.583Z,3132
2018-07-12T06:46:27.233Z,3552
2018-07-12T06:47:35.878Z,3580
2018-07-12T06:48:44.534Z,3652
2018-07-12T06:49:53.442Z,3528
2018-07-12T06:51:02.357Z,3524
2018-07-12T06:52:11.002Z,3440
2018-07-12T06:53:19.646Z,3624
2018-07-12T06:54:28.300Z,3496
2018-07-12T06:55:37.208Z,3496
2018-07-12T06:56:45.859Z,3516
2018-07-12T06:57:54.499Z,3520
2018-07-12T06:59:03.148Z,3560
2018-07-12T07:00:12.061Z,3584
2018-07-12T07:01:20.706Z,3556
2018-07-12T07:02:29.350Z,3720
2018-07-12T07:03:38.001Z,3612
2018-07-12T07:04:46.648Z,3532
2018-07-12T07:05:55.366Z,3548
2018-07-12T07:07:04.205Z,3552
2018-07-12T07:08:12.855Z,3604
2018-07-12T07:09:21.769Z,3516
2018-07-12T07:10:30.686Z,3508
2018-07-12T07:11:39.331Z,3536
2018-07-12T07:12:47.973Z,3500
2018-07-12T07:13:56.624Z,3464
2018-07-12T07:15:05.268Z,3440
2018-07-12T07:16:13.924Z,3388
2018-07-12T07:17:22.828Z,3380
2018-07-12T07:18:31.481Z,3404
2018-07-12T07:19:40.128Z,3408
2018-07-12T07:20:48.780Z,3368
2018-07-12T07:21:57.417Z,3356
2018-07-12T07:23:06.333Z,3352
2018-07-12T07:24:14.975Z,3332
2018-07-12T07:25:23.634Z,3344
2018-07-12T07:26:32.552Z,3304
2018-07-12T07:27:41.186Z,3320
2018-07-12T07:28:49.830Z,3320
2018-07-12T07:29:58.475Z,3300
2018-07-12T07:31:07.132Z,3268
2018-07-12T07:32:15.775Z,3268
2018-07-12T07:33:24.449Z,3280
2018-07-12T07:34:33.068Z,3280
2018-07-12T07:35:41.811Z,3264
2018-07-12T07:36:50.817Z,3264
2018-07-12T07:37:59.471Z,3268
2018-07-12T07:39:08.112Z,3284
2018-07-12T07:40:16.764Z,3296
2018-07-12T07:41:25.411Z,3308
2018-07-12T07:42:34.061Z,3356
2018-07-12T07:43:42.700Z,3364
2018-07-12T07:44:51.351Z,3392
2018-07-12T07:46:00.003Z,3396
2018-07-12T07:47:08.656Z,3388
2018-07-12T07:48:17.573Z,3368
2018-07-12T07:49:26.213Z,3360
2018-07-12T07:50:34.867Z,3368
2018-07-12T07:51:43.512Z,3376
2018-07-12T07:52:52.354Z,3376
2018-07-12T07:54:00.994Z,3388
2018-07-12T07:55:09.646Z,3396
2018-07-12T07:56:18.290Z,3380
2018-07-12T07:57:26.949Z,3380
2018-07-12T07:58:35.586Z,3372
2018-07-12T07:59:44.237Z,3372
2018-07-12T08:00:52.883Z,3356
2018-07-12T08:02:01.807Z,3336
2018-07-12T08:03:10.453Z,3304
2018-07-12T08:04:19.092Z,3304
2018-07-12T08:05:27.738Z,3324
2018-07-12T08:06:36.382Z,3316
2018-07-12T08:07:45.040Z,3308
2018-07-12T08:08:53.681Z,3280
2018-07-12T08:10:02.330Z,3268
2018-07-12T08:11:11.511Z,3260
2018-07-12T08:12:20.155Z,3260
2018-07-12T08:13:29.091Z,3264
2018-07-12T08:14:37.748Z,3276
2018-07-12T08:15:46.400Z,3264
2018-07-12T08:16:55.046Z,3256
2018-07-12T08:18:03.698Z,3228
2018-07-12T08:19:12.609Z,3220
2018-07-12T08:20:21.261Z,3240
2018-07-12T08:21:29.906Z,3236
2018-07-12T08:22:38.560Z,3224
2018-07-12T08:23:47.285Z,3220
2018-07-12T08:24:55.932Z,3228
2018-07-12T08:26:04.589Z,3244
2018-07-12T08:27:13.310Z,3248
2018-07-12T08:28:21.957Z,3252
2018-07-12T08:29:30.603Z,3236
2018-07-12T08:30:39.520Z,3204
2018-07-12T08:31:48.169Z,3220
2018-07-12T08:32:56.820Z,3228
2018-07-12T08:34:05.469Z,3240
2018-07-12T08:35:14.122Z,3252
2018-07-12T08:36:22.768Z,3260
2018-07-12T08:37:31.415Z,3280
2018-07-12T08:38:40.062Z,3296
2018-07-12T08:39:48.780Z,3308
2018-07-12T08:40:57.430Z,3336
2018-07-12T08:42:06.167Z,3348
2018-07-12T08:43:14.901Z,3376
2018-07-12T08:44:23.642Z,3384
2018-07-12T08:45:32.625Z,3376
2018-07-12T08:46:41.654Z,3376
2018-07-12T08:47:50.351Z,3360
2018-07-12T08:48:59.379Z,3356
2018-07-12T08:50:08.029Z,3348
2018-07-12T08:51:16.681Z,3352
2018-07-12T08:52:25.606Z,3364
2018-07-12T08:53:34.248Z,3360
2018-07-12T08:54:42.924Z,3368
2018-07-12T08:55:51.553Z,3356
2018-07-12T08:57:00.203Z,3364
2018-07-12T08:58:08.872Z,3452
2018-07-12T08:59:17.563Z,3528
2018-07-12T09:00:26.212Z,3384
2018-07-12T09:01:34.862Z,3360
2018-07-12T09:02:43.996Z,3376
2018-07-12T09:03:52.603Z,3428
2018-07-12T09:05:01.254Z,3460
2018-07-12T09:06:09.901Z,3440
2018-07-12T09:07:18.565Z,3404
2018-07-12T09:08:27.208Z,3412
2018-07-12T09:09:35.865Z,3472
2018-07-12T09:10:44.505Z,3508
2018-07-12T09:11:53.165Z,3620
2018-07-12T09:13:01.820Z,3612
2018-07-12T09:14:10.736Z,3628
2018-07-12T09:15:19.486Z,3124
2018-07-12T09:16:28.141Z,3592
2018-07-12T09:17:36.800Z,4708
2018-07-12T09:18:45.479Z,4284
2018-07-12T09:19:54.402Z,4020
2018-07-12T09:21:03.044Z,4844
2018-07-12T09:22:11.698Z,4552
2018-07-12T09:23:20.344Z,4512
2018-07-12T09:24:29.005Z,4348
2018-07-12T09:25:37.646Z,3964
2018-07-12T09:26:46.308Z,3600
2018-07-12T09:27:55.219Z,3536
2018-07-12T09:29:03.934Z,3540
2018-07-12T09:30:12.841Z,3608
2018-07-12T09:31:21.499Z,3704
2018-07-12T09:32:30.147Z,3764
2018-07-12T09:33:38.810Z,3828
2018-07-12T09:34:47.739Z,4036
2018-07-12T09:35:56.379Z,4444
2018-07-12T09:37:05.117Z,4396
2018-07-12T09:38:13.678Z,4232
2018-07-12T09:39:22.337Z,3464
2018-07-12T09:40:30.984Z,3932
2018-07-12T09:41:39.642Z,4156
2018-07-12T09:42:48.289Z,4524
2018-07-12T09:43:56.951Z,5168
2018-07-12T09:45:05.868Z,6008
2018-07-12T09:46:14.780Z,6216
2018-07-12T09:47:23.448Z,6148
2018-07-12T09:48:32.381Z,5620
2018-07-12T09:49:41.301Z,4464
2018-07-12T09:50:49.953Z,4472
2018-07-12T09:51:58.595Z,3964
2018-07-12T09:53:07.249Z,4520
2018-07-12T09:54:15.904Z,4720
2018-07-12T09:55:24.821Z,4924
2018-07-12T09:56:33.563Z,5508
2018-07-12T09:57:42.123Z,6236
2018-07-12T09:58:50.780Z,5900
2018-07-12T09:59:59.700Z,6320
2018-07-12T10:01:08.709Z,5824
2018-07-12T10:02:17.319Z,5436
2018-07-12T10:03:26.507Z,5580
2018-07-12T10:04:35.154Z,5184
2018-07-12T10:05:44.072Z,4380
2018-07-12T10:06:52.764Z,4688
2018-07-12T10:08:01.383Z,4652
2018-07-12T10:09:10.040Z,5076
2018-07-12T10:10:18.963Z,5392
2018-07-12T10:11:27.616Z,5100
2018-07-12T10:12:36.272Z,4620
2018-07-12T10:13:44.925Z,4188
2018-07-12T10:14:53.578Z,4040
2018-07-12T10:16:02.492Z,4096
2018-07-12T10:17:11.142Z,4576
2018-07-12T10:18:19.788Z,5960
2018-07-12T10:19:28.453Z,5832
2018-07-12T10:20:37.095Z,5888
2018-07-12T10:21:45.750Z,5860
2018-07-12T10:22:54.395Z,5612
2018-07-12T10:24:03.054Z,5104
2018-07-12T10:25:11.690Z,4792
2018-07-12T10:26:20.343Z,4500
2018-07-12T10:27:29.000Z,4788
2018-07-12T10:28:37.654Z,5768
2018-07-12T10:29:46.347Z,5540
2018-07-12T10:30:54.950Z,4792
2018-07-12T10:32:03.599Z,3584
2018-07-12T10:33:12.254Z,3776
2018-07-12T10:34:20.913Z,4344
2018-07-12T10:35:29.559Z,5040
2018-07-12T10:36:38.215Z,5260
2018-07-12T10:37:46.858Z,5276
2018-07-12T10:38:55.518Z,5028
2018-07-12T10:40:04.164Z,4844
2018-07-12T10:41:12.821Z,4284
2018-07-12T10:42:21.463Z,4748
2018-07-12T10:43:30.127Z,4396
2018-07-12T10:44:39.137Z,4752
2018-07-12T10:45:47.790Z,5352
2018-07-12T10:46:56.431Z,5696
2018-07-12T10:48:05.088Z,5832
2018-07-12T10:49:14.007Z,6676
2018-07-12T10:50:22.661Z,6108
2018-07-12T10:51:31.315Z,5356
2018-07-12T10:52:39.957Z,5152
2018-07-12T10:53:48.616Z,6664
2018-07-12T10:54:57.262Z,5508
2018-07-12T10:56:05.928Z,5860
2018-07-12T10:57:14.572Z,6376
2018-07-12T10:58:23.227Z,6504
2018-07-12T10:59:31.877Z,7116
2018-07-12T11:00:40.539Z,6536
2018-07-12T11:01:49.185Z,5240
2018-07-12T11:02:57.836Z,6252
2018-07-12T11:04:06.488Z,5700
2018-07-12T11:05:15.144Z,6136
2018-07-12T11:06:23.793Z,6348
2018-07-12T11:07:32.443Z,6132
2018-07-12T11:08:41.096Z,5376
2018-07-12T11:09:49.765Z,6348
2018-07-12T11:10:58.406Z,4776
2018-07-12T11:12:07.059Z,4232
2018-07-12T11:13:15.985Z,3908
2018-07-12T11:14:24.903Z,3204
2018-07-12T11:15:33.559Z,2896
2018-07-12T11:16:42.211Z,2820
2018-07-12T11:17:50.864Z,2952
2018-07-12T11:18:59.511Z,3064
2018-07-12T11:20:08.439Z,3304
2018-07-12T11:21:17.186Z,3552
2018-07-12T11:22:25.743Z,4004
2018-07-12T11:23:34.652Z,4420
2018-07-12T11:24:43.572Z,4608
2018-07-12T11:25:52.487Z,5000
2018-07-12T11:27:01.144Z,6004
2018-07-12T11:28:09.852Z,7272
2018-07-12T11:29:18.445Z,7320
2018-07-12T11:30:27.103Z,7088
2018-07-12T11:31:35.755Z,6748
2018-07-12T11:32:44.411Z,6252
2018-07-12T11:33:53.588Z,5824
2018-07-12T11:35:02.237Z,5192
2018-07-12T11:36:11.173Z,3740
2018-07-12T11:37:19.820Z,3340
2018-07-12T11:38:28.737Z,3052
2018-07-12T11:39:37.671Z,2964
2018-07-12T11:40:46.371Z,2856
2018-07-12T11:41:55.029Z,2700
2018-07-12T11:43:03.680Z,2656
2018-07-12T11:44:12.595Z,2628
2018-07-12T11:45:21.243Z,2620
2018-07-12T11:46:29.894Z,2736
2018-07-12T11:47:38.550Z,2960
2018-07-12T11:48:47.202Z,3268
2018-07-12T11:49:55.858Z,4440
2018-07-12T11:51:04.507Z,5136
2018-07-12T11:52:13.164Z,5516
2018-07-12T11:53:21.814Z,5588
2018-07-12T11:54:30.467Z,5632
2018-07-12T11:55:39.114Z,5748
2018-07-12T11:56:47.773Z,5732
2018-07-12T11:57:56.426Z,5584
2018-07-12T11:59:05.082Z,5568
2018-07-12T12:00:13.993Z,5688
2018-07-12T12:01:22.691Z,5672
2018-07-12T12:02:31.302Z,5596
2018-07-12T12:03:39.963Z,5580
2018-07-12T12:04:48.617Z,5588
2018-07-12T12:05:57.262Z,5628
2018-07-12T12:07:05.923Z,5728
2018-07-12T12:08:14.580Z,6040
2018-07-12T12:09:23.238Z,6320
2018-07-12T12:10:31.903Z,6588
2018-07-12T12:11:40.533Z,6784
2018-07-12T12:12:49.226Z,6956
2018-07-12T12:13:57.843Z,7096
2018-07-12T12:15:06.490Z,7288
2018-07-12T12:16:15.144Z,7404
2018-07-12T12:17:23.794Z,7516
2018-07-12T12:18:32.456Z,7412
2018-07-12T12:19:41.104Z,6976
2018-07-12T12:20:49.753Z,6156
2018-07-12T12:21:58.666Z,5556
2018-07-12T12:23:07.318Z,5072
2018-07-12T12:24:15.984Z,4868
2018-07-12T12:25:24.632Z,4260
2018-07-12T12:26:33.561Z,3220
2018-07-12T12:27:42.207Z,3020
2018-07-12T12:28:50.869Z,3192
2018-07-12T12:29:59.514Z,3376
2018-07-12T12:31:08.173Z,3388
2018-07-12T12:32:16.816Z,3292
2018-07-12T12:33:25.487Z,3292
2018-07-12T12:34:34.399Z,3524
2018-07-12T12:35:43.054Z,3908
2018-07-12T12:36:51.696Z,4312
2018-07-12T12:38:00.352Z,4488
2018-07-12T12:39:09.014Z,4620
2018-07-12T12:40:17.668Z,4876
2018-07-12T12:41:26.324Z,5048
2018-07-12T12:42:34.967Z,5020
2018-07-12T12:43:43.625Z,4852
2018-07-12T12:44:52.536Z,4500
2018-07-12T12:46:01.204Z,3992
2018-07-12T12:47:09.849Z,3600
2018-07-12T12:48:18.503Z,3516
2018-07-12T12:49:27.151Z,3896
2018-07-12T12:50:35.814Z,4432
2018-07-12T12:51:44.459Z,4976
2018-07-12T12:52:53.119Z,5320
2018-07-12T12:54:01.769Z,5276
2018-07-12T12:55:10.435Z,5152
2018-07-12T12:56:19.089Z,4792
2018-07-12T12:57:27.739Z,4324
2018-07-12T12:58:36.389Z,3976
2018-07-12T12:59:45.041Z,3884
2018-07-12T13:00:53.702Z,3956
2018-07-12T13:02:02.354Z,4008
2018-07-12T13:03:11.028Z,4120
2018-07-12T13:04:19.680Z,4196
2018-07-12T13:05:28.336Z,4140
2018-07-12T13:06:36.988Z,4364
2018-07-12T13:07:45.642Z,4452
2018-07-12T13:08:54.289Z,4420
2018-07-12T13:10:02.944Z,4436
2018-07-12T13:11:11.596Z,4268
2018-07-12T13:12:20.257Z,4156
2018-07-12T13:13:28.899Z,3888
2018-07-12T13:14:37.580Z,3624
2018-07-12T13:15:46.510Z,3584
2018-07-12T13:16:55.163Z,3548
2018-07-12T13:18:04.350Z,3700
2018-07-12T13:19:12.997Z,4068
2018-07-12T13:20:21.648Z,4596
2018-07-12T13:21:30.300Z,4804
2018-07-12T13:22:38.958Z,4528
2018-07-12T13:23:47.606Z,4476
2018-07-12T13:24:56.521Z,4404
2018-07-12T13:26:05.203Z,4020
2018-07-12T13:27:13.831Z,3804
2018-07-12T13:28:22.477Z,4864
2018-07-12T13:29:31.130Z,4568
2018-07-12T13:30:39.784Z,4720
2018-07-12T13:31:48.484Z,4836
2018-07-12T13:32:57.090Z,4948
2018-07-12T13:34:06.013Z,4088
2018-07-12T13:35:14.933Z,3720
2018-07-12T13:36:23.580Z,3836
2018-07-12T13:37:32.238Z,3848
2018-07-12T13:38:40.893Z,3756
2018-07-12T13:39:49.814Z,3544
2018-07-12T13:40:58.481Z,3452
2018-07-12T13:42:07.730Z,3420
2018-07-12T13:43:16.386Z,3448
2018-07-12T13:44:25.050Z,3504
2018-07-12T13:45:33.687Z,3704
2018-07-12T13:46:42.374Z,4012
2018-07-12T13:47:50.996Z,4224
2018-07-12T13:48:59.651Z,4440
2018-07-12T13:50:08.299Z,4580
2018-07-12T13:51:16.956Z,4720
2018-07-12T13:52:25.611Z,6148
2018-07-12T13:53:34.264Z,5024
2018-07-12T13:54:43.205Z,5044
2018-07-12T13:55:52.400Z,4920
2018-07-12T13:57:01.317Z,6472
2018-07-12T13:58:10.035Z,6284
2018-07-12T13:59:18.622Z,6136
2018-07-12T14:00:27.275Z,4384
2018-07-12T14:01:35.927Z,4296
2018-07-12T14:02:44.576Z,4492
2018-07-12T14:03:53.233Z,4924
2018-07-12T14:05:01.937Z,5140
2018-07-12T14:06:11.201Z,6944
2018-07-12T14:07:19.848Z,7008
2018-07-12T14:08:28.496Z,5288
2018-07-12T14:09:37.152Z,6508
2018-07-12T14:10:45.806Z,6328
2018-07-12T14:11:54.720Z,6000
2018-07-12T14:13:03.379Z,5812
2018-07-12T14:14:12.027Z,3892
2018-07-12T14:15:20.681Z,3220
2018-07-12T14:16:29.333Z,2940
2018-07-12T14:17:37.995Z,2496
2018-07-12T14:18:46.911Z,2524
2018-07-12T14:19:55.566Z,2420
2018-07-12T14:21:04.220Z,2448
2018-07-12T14:22:12.877Z,2536
2018-07-12T14:23:21.526Z,2612
2018-07-12T14:24:30.183Z,2676
2018-07-12T14:25:38.832Z,2704
2018-07-12T14:26:47.489Z,2772
2018-07-12T14:27:56.144Z,2932
2018-07-12T14:29:05.063Z,3240
2018-07-12T14:30:13.719Z,3448
2018-07-12T14:31:22.365Z,3780
2018-07-12T14:32:31.580Z,3600
2018-07-12T14:33:40.241Z,3664
2018-07-12T14:34:48.893Z,3768
2018-07-12T14:35:57.541Z,3732
2018-07-12T14:37:06.200Z,3708
2018-07-12T14:38:14.850Z,3500
2018-07-12T14:39:23.770Z,3628
2018-07-12T14:40:32.678Z,3828
2018-07-12T14:41:41.337Z,3224
2018-07-12T14:42:49.986Z,2968
2018-07-12T14:43:58.643Z,2856
2018-07-12T14:45:07.291Z,2792
2018-07-12T14:46:15.946Z,2852
2018-07-12T14:47:24.873Z,3036
2018-07-12T14:48:33.527Z,3196
2018-07-12T14:49:42.449Z,4484
2018-07-12T14:50:51.098Z,4632
2018-07-12T14:51:59.755Z,4824
2018-07-12T14:53:08.669Z,3928
2018-07-12T14:54:17.326Z,3640
2018-07-12T14:55:25.978Z,3584
2018-07-12T14:56:34.631Z,3408
2018-07-12T14:57:43.282Z,3188
2018-07-12T14:58:51.942Z,3036
2018-07-12T15:00:00.587Z,3052
2018-07-12T15:01:09.514Z,3268
2018-07-12T15:02:18.180Z,3552
2018-07-12T15:03:27.108Z,3812
2018-07-12T15:04:35.758Z,4100
2018-07-12T15:05:44.409Z,4524
2018-07-12T15:06:53.058Z,5188
2018-07-12T15:08:01.711Z,4880
2018-07-12T15:09:10.854Z,3652
2018-07-12T15:10:19.393Z,2944
2018-07-12T15:11:28.051Z,2340
2018-07-12T15:12:36.696Z,1928
2018-07-12T15:13:45.356Z,1860
2018-07-12T15:14:54.004Z,1068
2018-07-12T15:16:02.661Z,960
2018-07-12T15:17:11.576Z,948
2018-07-12T15:18:20.238Z,1116
2018-07-12T15:19:28.909Z,1452
2018-07-12T15:20:37.546Z,1792
2018-07-12T15:21:46.188Z,2028
2018-07-12T15:22:55.104Z,2104
2018-07-12T15:24:04.024Z,2156
2018-07-12T15:25:12.684Z,2472
2018-07-12T15:26:21.364Z,2908
2018-07-12T15:27:29.979Z,3016
2018-07-12T15:28:38.633Z,2932
2018-07-12T15:29:47.282Z,2936
2018-07-12T15:30:55.943Z,2984
2018-07-12T15:32:04.586Z,3060
2018-07-12T15:33:13.242Z,3092
2018-07-12T15:34:21.889Z,2924
2018-07-12T15:35:30.565Z,2860